Bedford, Ohio
Current Conditions -  °F | °C
As of 7:53 AM on Thursday 18 Dec 2014 (Local Time) from KBKL Reporting Station
Overcast Overcast  
Wind Chill: 21°   Ceiling: 2100
Heat Index: 32°   Visibility: 10mi
Dew Point: 24°   Wind: 16mph
Humidity: 73%   Direction: 270°W
Pressure: 30.19"   Gusts: NA
Location:  41.4°N, 81.54°W
Report Text: KBKL 181253Z 27014KT 10SM OVC021 00/M04 A3019 RMK AO2 SLP229 T00001044
Loading
Personal Weather Stations






























Interactive Weather Map New forecast layout! Learn more

10-Day Weather Forecast

Advertisements
Track Severe Weather on mobile